Time;durP1;ratioP1;P1;durP2;ratioP2;P2;SDS_P1;SDS_P2;PMS_P1;PMS_P2;Temp;Humidity;BMP_temperature;BMP_pressure;BME280_temperature;BME280_humidity;BME280_pressure;Samples;Min_cycle;Max_cycle;Signal;HPM_P1;HPM_P2
2022/06/02 00:01:54;;;;;;;13.13;6.28;;;;;;;17.42;85.89;99175.33;1824205;78;21075;-79
2022/06/02 00:04:47;;;;;;;14.47;6.65;;;;;;;17.39;85.46;99171.53;1825958;77;21047;-78
2022/06/02 00:07:32;;;;;;;13.68;6.58;;;;;;;17.33;84.94;99174.03;1822746;78;21483;-80
2022/06/02 00:10:25;;;;;;;12.80;6.37;;;;;;;17.33;85.54;99182.36;1804014;78;20948;-79
2022/06/02 00:13:15;;;;;;;11.88;5.78;;;;;;;17.33;86.66;99177.11;1816933;77;21037;-79
2022/06/02 00:15:52;;;;;;;11.30;5.83;;;;;;;17.33;86.29;99182.36;1814894;78;20987;-79
2022/06/02 00:18:30;;;;;;;;;;;;;;;17.34;87.04;99180.97;1810870;78;21055;-79
2022/06/02 00:21:34;;;;;;;16.73;6.83;;;;;;;17.35;88.00;99187.95;1816415;78;20171;-80
2022/06/02 00:24:28;;;;;;;11.85;6.67;;;;;;;17.34;86.90;99190.64;1831525;78;21519;-77
2022/06/02 00:27:44;;;;;;;12.23;6.12;;;;;;;17.35;87.82;99191.02;1812850;77;21478;-79
2022/06/02 00:30:25;;;;;;;13.55;6.28;;;;;;;17.37;86.96;99183.91;1829121;78;21035;-79
2022/06/02 00:33:26;;;;;;;9.23;5.53;;;;;;;17.35;86.86;99187.07;1813360;78;21046;-78
2022/06/02 00:36:03;;;;;;;12.73;6.58;;;;;;;17.36;87.17;99180.91;1825167;77;21059;-79
2022/06/02 00:38:35;;;;;;;12.43;6.00;;;;;;;17.29;85.88;99180.38;1801268;78;20995;-78
2022/06/02 00:41:22;;;;;;;13.20;5.55;;;;;;;17.25;86.42;99186.25;1806626;77;21011;-80
2022/06/02 00:44:19;;;;;;;12.60;6.37;;;;;;;17.24;86.60;99185.84;1805517;77;21019;-79
2022/06/02 00:46:59;;;;;;;13.45;6.15;;;;;;;17.22;85.76;99182.92;1807694;78;21523;-80
2022/06/02 00:49:58;;;;;;;12.18;6.15;;;;;;;17.14;85.53;99183.31;1815465;77;20984;-80
2022/06/02 00:52:36;;;;;;;13.68;6.33;;;;;;;17.14;86.88;99181.16;1813935;78;21008;-79
2022/06/02 00:58:46;;;;;;;13.13;6.47;;;;;;;17.11;85.96;99187.42;1815367;79;21488;-79
2022/06/02 01:01:16;;;;;;;12.37;6.70;;;;;;;17.03;86.36;99180.36;1818438;79;21130;-79
2022/06/02 01:03:47;;;;;;;11.55;6.70;;;;;;;16.97;86.91;99180.67;1808941;79;21555;-80
2022/06/02 01:06:25;;;;;;;15.45;7.15;;;;;;;16.94;86.57;99179.06;1818514;79;21023;-80
2022/06/02 01:09:15;;;;;;;12.65;6.20;;;;;;;16.89;87.30;99173.17;1800106;78;21043;-79
2022/06/02 01:12:05;;;;;;;13.72;6.55;;;;;;;16.83;86.47;99169.54;1800787;79;21019;-79
2022/06/02 01:15:15;;;;;;;14.65;6.92;;;;;;;16.82;86.25;99173.95;1805296;78;20999;-79
2022/06/02 01:18:07;;;;;;;15.30;6.53;;;;;;;16.84;87.79;99182.60;1810827;78;21587;-79
2022/06/02 01:21:00;;;;;;;13.65;6.55;;;;;;;16.85;87.93;99181.69;1812632;78;21595;-78
2022/06/02 01:23:49;;;;;;;11.78;6.55;;;;;;;16.85;88.08;99175.56;1813686;78;21005;-79
2022/06/02 01:26:45;;;;;;;10.38;6.00;;;;;;;16.86;88.13;99175.50;1814894;78;20996;-79
2022/06/02 01:30:05;;;;;;;10.30;5.80;;;;;;;16.81;87.77;99172.27;1810998;79;21063;-79
2022/06/02 01:33:01;;;;;;;12.28;6.20;;;;;;;16.81;88.03;99178.83;1800023;78;21051;-77
2022/06/02 01:35:42;;;;;;;12.73;6.35;;;;;;;16.80;87.78;99186.27;1805851;78;21003;-77
2022/06/02 01:38:45;;;;;;;14.25;6.10;;;;;;;16.77;88.21;99178.56;1822730;79;21027;-77
2022/06/02 01:41:26;;;;;;;11.38;5.97;;;;;;;16.74;87.92;99177.86;1816755;79;21103;-79
2022/06/02 01:44:16;;;;;;;12.13;6.55;;;;;;;16.67;87.37;99175.98;1820265;78;21050;-78
2022/06/02 01:47:20;;;;;;;10.78;6.53;;;;;;;16.61;87.59;99176.28;1804383;78;21000;-78
2022/06/02 01:50:16;;;;;;;13.40;6.78;;;;;;;16.56;87.78;99179.61;1802752;78;20956;-79
2022/06/02 01:53:05;;;;;;;13.58;7.00;;;;;;;16.49;87.13;99180.34;1800880;78;21464;-79
2022/06/02 01:55:59;;;;;;;13.10;6.67;;;;;;;16.41;86.97;99168.05;1812821;79;22140;-79
2022/06/02 01:58:35;;;;;;;11.30;6.50;;;;;;;;;;1805210;79;21051;-79
2022/06/02 02:01:13;;;;;;;12.47;6.50;;;;;;;16.30;87.91;99168.11;1824167;78;21074;-79
2022/06/02 02:04:29;;;;;;;12.28;6.87;;;;;;;16.29;88.23;99165.11;1819686;78;20987;-79
2022/06/02 02:07:13;;;;;;;14.75;6.80;;;;;;;16.31;88.60;99168.95;1828040;76;20955;-77
2022/06/02 02:10:24;;;;;;;15.75;6.08;;;;;;;16.31;88.86;99165.02;1833470;77;21582;-79
2022/06/02 02:13:17;;;;;;;12.63;5.90;;;;;;;16.29;88.41;99157.68;1818819;78;21075;-79
2022/06/02 02:16:04;;;;;;;13.43;6.63;;;;;;;16.27;89.07;99159.53;1829416;77;21015;-79
2022/06/02 02:18:48;;;;;;;14.13;5.97;;;;;;;16.27;88.25;99166.09;1818545;77;21564;-79
2022/06/02 02:21:57;;;;;;;15.08;6.25;;;;;;;16.25;88.94;99159.62;1823998;77;21012;-79
2022/06/02 02:24:29;;;;;;;16.82;6.55;;;;;;;16.25;88.20;99162.69;1813513;78;21010;-79
2022/06/02 02:27:13;;;;;;;19.95;7.50;;;;;;;16.24;89.31;99161.84;1817271;77;21055;-79
2022/06/02 02:30:06;;;;;;;17.87;8.08;;;;;;;16.26;88.44;99159.16;1764986;80;21026;-79
2022/06/02 02:33:12;;;;;;;20.05;7.97;;;;;;;16.23;89.13;99161.91;1818151;78;20988;-79
2022/06/02 02:36:32;;;;;;;12.98;6.90;;;;;;;16.23;90.22;99159.28;1830435;78;21003;-78
2022/06/02 02:39:13;;;;;;;13.53;7.33;;;;;;;16.20;89.99;99156.83;1819957;78;21004;-79
2022/06/02 02:41:57;;;;;;;17.60;7.47;;;;;;;16.09;91.11;99154.69;1831336;77;21382;-79
2022/06/02 02:44:46;;;;;;;14.23;6.85;;;;;;;16.06;91.03;99162.25;1819943;78;21049;-79
2022/06/02 02:47:33;;;;;;;14.65;6.83;;;;;;;16.06;90.56;99154.84;1822845;78;21067;-79
2022/06/02 02:50:14;;;;;;;13.00;6.72;;;;;;;16.09;90.99;99154.69;1835543;78;20971;-79
2022/06/02 02:53:08;;;;;;;17.00;7.25;;;;;;;16.10;90.94;99158.55;1802354;78;21009;-79
2022/06/02 02:56:01;;;;;;;13.38;6.85;;;;;;;16.13;91.37;99154.09;1804412;77;21012;-79
2022/06/02 02:58:54;;;;;;;14.55;6.28;;;;;;;16.13;90.58;99158.86;1818464;77;20985;-79
2022/06/02 03:02:02;;;;;;;12.58;6.75;;;;;;;16.08;90.97;99164.34;1801989;77;21112;-78
2022/06/02 03:04:52;;;;;;;14.87;6.80;;;;;;;16.12;91.67;99155.03;1828449;77;21453;-78
2022/06/02 03:07:21;;;;;;;18.52;6.42;;;;;;;16.16;91.87;99153.95;1786843;80;21023;-79
2022/06/02 03:10:07;;;;;;;13.90;6.60;;;;;;;16.21;91.44;99155.42;1805781;79;20982;-78
2022/06/02 03:13:23;;;;;;;13.62;6.33;;;;;;;16.24;90.93;99158.38;1767235;80;20996;-78
2022/06/02 03:15:55;;;;;;;14.70;6.67;;;;;;;16.28;90.80;99159.46;1804516;79;21023;-78
2022/06/02 03:18:33;;;;;;;12.15;5.80;;;;;;;16.33;91.07;99168.41;1790215;79;21552;-75
2022/06/02 03:21:20;;;;;;;13.70;6.42;;;;;;;16.32;90.04;99168.05;1780139;80;21020;-79
2022/06/02 03:24:18;;;;;;;13.43;6.83;;;;;;;16.34;90.50;99176.69;1792061;79;20950;-79
2022/06/02 03:27:14;;;;;;;14.58;6.90;;;;;;;16.34;90.38;99171.45;1769996;80;20988;-79
2022/06/02 03:30:19;;;;;;;14.28;6.25;;;;;;;16.38;90.28;99175.63;1810933;79;21017;-78
2022/06/02 03:33:14;;;;;;;11.35;6.65;;;;;;;16.37;90.50;99177.84;1808262;79;21002;-79
2022/06/02 03:35:57;;;;;;;8.95;5.60;;;;;;;16.38;90.58;99178.24;1788093;80;21455;-78
2022/06/02 03:38:44;;;;;;;;;;;;;;;16.35;89.70;99179.69;1800448;78;21046;-79
2022/06/02 03:41:40;;;;;;;8.30;5.60;;;;;;;16.34;90.41;99179.78;1771245;79;20122;-78
2022/06/02 03:44:15;;;;;;;9.23;5.22;;;;;;;16.30;88.66;99183.01;1794366;78;20983;-78
2022/06/02 03:46:47;;;;;;;8.75;5.83;;;;;;;16.23;89.21;99177.17;1747772;79;21050;-79
2022/06/02 03:49:22;;;;;;;7.75;5.30;;;;;;;16.21;88.79;99193.92;1764667;80;20990;-78
2022/06/02 03:51:57;;;;;;;11.97;6.28;;;;;;;16.19;90.19;99187.90;1778263;80;21038;-79
2022/06/02 03:55:02;;;;;;;14.50;6.40;;;;;;;16.21;90.59;99189.98;1824879;78;21019;-79
2022/06/02 03:57:37;;;;;;;12.03;6.83;;;;;;;16.24;90.71;99185.92;1809107;78;21075;-79
2022/06/02 04:00:17;;;;;;;12.55;7.00;;;;;;;16.26;90.30;99183.61;1815853;78;20980;-78
2022/06/02 04:02:55;;;;;;;15.68;7.20;;;;;;;16.32;90.66;99179.84;1814572;77;20963;-79
2022/06/02 04:05:50;;;;;;;11.73;7.10;;;;;;;16.37;90.92;99180.46;1811614;77;21015;-78
2022/06/02 04:09:03;;;;;;;13.35;6.97;;;;;;;16.43;90.69;99184.58;1813769;78;21011;-80
2022/06/02 04:14:50;;;;;;;13.72;7.90;;;;;;;16.58;90.45;99183.01;1805941;78;21327;-80
2022/06/02 04:17:46;;;;;;;13.60;7.00;;;;;;;16.67;90.68;99186.48;1819163;78;21041;-78
2022/06/02 04:20:59;;;;;;;15.83;6.95;;;;;;;16.76;91.70;99187.35;1806867;78;20996;-79
2022/06/02 04:23:54;;;;;;;16.05;7.45;;;;;;;16.85;91.02;99184.31;1822332;78;21528;-79
2022/06/02 04:26:53;;;;;;;15.72;8.13;;;;;;;16.94;91.19;99176.91;1814037;78;20976;-79
2022/06/02 04:29:58;;;;;;;25.50;8.18;;;;;;;17.02;91.00;99183.94;1819317;78;21027;-80
2022/06/02 04:32:39;;;;;;;15.75;8.90;;;;;;;17.09;91.88;99190.12;1829473;78;21531;-79
2022/06/02 04:35:10;;;;;;;17.15;9.30;;;;;;;17.14;91.39;99175.90;1808402;78;21062;-79
2022/06/02 04:37:57;;;;;;;20.15;9.80;;;;;;;17.25;90.97;99191.50;1813221;77;20988;-79
2022/06/02 04:41:04;;;;;;;20.23;9.28;;;;;;;17.34;91.16;99188.02;1814860;78;20928;-79
2022/06/02 04:43:57;;;;;;;22.37;11.45;;;;;;;17.43;91.05;99197.59;1821963;78;21047;-79
2022/06/02 04:46:44;;;;;;;18.17;9.25;;;;;;;17.51;90.50;99190.63;1819785;78;21050;-79
2022/06/02 04:49:40;;;;;;;18.73;9.28;;;;;;;17.60;91.37;99190.60;1813979;78;21031;-79
2022/06/02 04:52:34;;;;;;;16.40;8.73;;;;;;;17.69;90.85;99184.40;1826356;78;21089;-79
2022/06/02 04:55:35;;;;;;;24.87;9.85;;;;;;;17.81;90.29;99182.06;1823197;78;20999;-79
2022/06/02 04:58:34;;;;;;;15.70;8.73;;;;;;;17.91;90.03;99195.13;1808666;78;21023;-80
2022/06/02 05:01:36;;;;;;;17.65;9.13;;;;;;;17.98;89.56;99196.48;1812750;78;21054;-79
2022/06/02 05:04:18;;;;;;;18.90;9.25;;;;;;;18.05;89.28;99188.65;1828541;78;21027;-80
2022/06/02 05:07:02;;;;;;;17.32;9.08;;;;;;;18.13;89.15;99188.70;1817126;78;21091;-79
2022/06/02 05:09:57;;;;;;;22.52;9.60;;;;;;;18.19;88.72;99186.58;1821198;78;21023;-80
2022/06/02 05:13:04;;;;;;;22.35;10.03;;;;;;;18.24;88.53;99191.58;1793263;78;21041;-80
2022/06/02 05:15:45;;;;;;;21.35;10.30;;;;;;;18.28;88.14;99193.11;1812112;78;21016;-79
2022/06/02 05:18:34;;;;;;;17.90;9.48;;;;;;;18.31;88.21;99198.22;1826666;78;21032;-79
2022/06/02 05:21:18;;;;;;;29.35;13.50;;;;;;;18.35;88.16;99190.53;1831396;78;21019;-79
2022/06/02 05:23:59;;;;;;;23.52;11.12;;;;;;;18.42;87.98;99194.53;1808156;78;20976;-79
2022/06/02 05:27:06;;;;;;;19.70;12.53;;;;;;;18.49;87.66;99194.55;1807773;78;21082;-78
2022/06/02 05:29:55;;;;;;;18.57;9.60;;;;;;;18.57;87.68;99195.44;1781839;79;21494;-79
2022/06/02 05:32:30;;;;;;;25.12;9.53;;;;;;;18.68;87.44;99199.64;1827194;77;21464;-78
2022/06/02 05:35:17;;;;;;;20.45;9.08;;;;;;;18.78;87.43;99197.78;1818260;77;21053;-78
2022/06/02 05:38:01;;;;;;;18.23;8.38;;;;;;;18.88;87.18;99193.73;1827600;77;20958;-79
2022/06/02 05:40:42;;;;;;;18.82;8.78;;;;;;;18.98;87.19;99196.22;1833020;77;21006;-78
2022/06/02 05:43:38;;;;;;;14.87;9.38;;;;;;;19.12;87.09;99197.17;1828710;77;21513;-79
2022/06/02 05:46:17;;;;;;;16.42;9.00;;;;;;;19.24;86.97;99197.31;1801599;78;21330;-79
2022/06/02 05:48:55;;;;;;;18.35;8.33;;;;;;;19.38;86.73;99195.18;1831142;77;21030;-80
2022/06/02 05:51:56;;;;;;;17.35;9.70;;;;;;;19.48;86.17;99197.64;1833549;77;21158;-78
2022/06/02 05:54:44;;;;;;;17.30;9.40;;;;;;;19.58;85.98;99197.94;1779567;80;21017;-78
2022/06/02 05:57:33;;;;;;;15.80;9.35;;;;;;;19.66;85.18;99194.36;1783878;79;21060;-79
2022/06/02 06:00:14;;;;;;;17.45;9.85;;;;;;;19.74;84.88;99188.65;1787478;79;21080;-78
2022/06/02 06:03:14;;;;;;;16.80;10.70;;;;;;;19.80;84.71;99189.59;1786843;79;21838;-88
2022/06/02 06:05:56;;;;;;;18.65;11.12;;;;;;;19.85;84.02;99191.94;1753967;81;21070;-88
2022/06/02 06:08:43;;;;;;;20.55;10.53;;;;;;;19.89;83.90;99192.12;1782363;80;21035;-87
2022/06/02 06:11:42;;;;;;;15.90;10.25;;;;;;;19.96;83.86;99188.64;1772901;79;20991;-87
2022/06/02 06:14:38;;;;;;;18.55;10.48;;;;;;;20.01;83.47;99191.34;1703823;81;21542;-86
2022/06/02 06:17:36;;;;;;;15.50;9.30;;;;;;;20.09;83.25;99191.35;1775221;80;21001;-87
2022/06/02 06:20:36;;;;;;;19.23;8.75;;;;;;;20.17;82.57;99199.63;1796920;79;21029;-86
2022/06/02 06:23:29;;;;;;;14.23;8.28;;;;;;;20.23;81.82;99192.64;1652258;86;21035;-87
2022/06/02 06:26:03;;;;;;;14.97;8.97;;;;;;;20.31;81.89;99197.44;1674452;84;21544;-87
2022/06/02 06:28:44;;;;;;;15.75;8.25;;;;;;;20.39;81.53;99188.55;1733421;81;21051;-86
2022/06/02 06:31:41;;;;;;;11.97;8.10;;;;;;;20.42;81.60;99196.29;1761919;79;20994;-79
2022/06/02 06:34:48;;;;;;;19.48;9.63;;;;;;;20.46;80.76;99192.02;1772561;79;21038;-78
2022/06/02 06:37:23;;;;;;;14.23;8.95;;;;;;;20.55;79.62;99192.37;1769348;79;20961;-79
2022/06/02 06:40:16;;;;;;;14.45;8.95;;;;;;;20.59;79.35;99188.62;1766977;79;21140;-79
2022/06/02 06:43:06;;;;;;;15.40;8.27;;;;;;;20.60;78.66;99191.64;1772160;79;21029;-79
2022/06/02 06:46:00;;;;;;;22.45;8.83;;;;;;;20.66;77.62;99192.09;1776012;79;21840;-80
2022/06/02 06:48:35;;;;;;;12.00;8.33;;;;;;;20.75;78.03;99186.69;1766856;80;21015;-78
2022/06/02 06:51:22;;;;;;;14.05;8.65;;;;;;;20.86;76.66;99183.33;1761570;81;21127;-79
2022/06/02 06:54:18;;;;;;;16.37;9.15;;;;;;;20.93;77.20;99188.59;1783791;79;21027;-78
2022/06/02 06:57:05;;;;;;;18.17;9.55;;;;;;;20.99;76.41;99187.31;1826156;77;21507;-79
2022/06/02 06:59:52;;;;;;;14.15;8.00;;;;;;;21.08;76.46;99186.71;1826654;77;21017;-78
2022/06/02 07:03:05;;;;;;;17.32;9.65;;;;;;;21.13;73.27;99191.23;1832702;77;21019;-77
2022/06/02 07:05:46;;;;;;;10.80;6.72;;;;;;;21.12;74.80;99184.23;1828989;77;21035;-78
2022/06/02 07:08:36;;;;;;;16.17;7.25;;;;;;;21.22;74.21;99185.30;1827249;77;21000;-79
2022/06/02 07:14:31;;;;;;;17.62;7.60;;;;;;;21.43;73.88;99196.74;1828076;77;20990;-81
2022/06/02 07:17:03;;;;;;;12.28;6.95;;;;;;;21.54;72.43;99190.70;1808763;78;21094;-80
2022/06/02 07:19:41;;;;;;;13.03;6.78;;;;;;;21.58;71.64;99183.77;1832070;77;20984;-79
2022/06/02 07:22:39;;;;;;;13.88;6.95;;;;;;;21.63;71.48;99189.59;1807407;77;21068;-79
2022/06/02 07:25:32;;;;;;;15.15;7.80;;;;;;;21.70;71.93;99185.20;1824059;77;21511;-79
2022/06/02 07:28:07;;;;;;;16.15;7.60;;;;;;;21.84;71.85;99178.45;1809907;78;21059;-78
2022/06/02 07:30:53;;;;;;;16.90;7.67;;;;;;;21.95;71.38;99185.66;1825503;77;20987;-79
2022/06/02 07:33:47;;;;;;;18.15;8.45;;;;;;;22.03;72.17;99186.80;1777609;79;21058;-79
2022/06/02 07:36:38;;;;;;;16.93;7.12;;;;;;;22.14;71.76;99190.47;1763517;80;21011;-78
2022/06/02 07:39:43;;;;;;;13.48;7.25;;;;;;;22.28;71.48;99184.22;1814265;78;21059;-78
2022/06/02 07:42:45;;;;;;;12.55;7.33;;;;;;;22.39;70.99;99195.73;1828943;78;21031;-78
2022/06/02 07:45:30;;;;;;;12.03;7.20;;;;;;;22.52;70.56;99192.19;1799552;78;21046;-78
2022/06/02 07:48:33;;;;;;;13.70;7.00;;;;;;;22.58;70.07;99192.61;1807433;78;21022;-80
2022/06/02 07:51:25;;;;;;;18.07;8.00;;;;;;;22.65;70.73;99192.98;1824601;77;20982;-78
2022/06/02 07:54:23;;;;;;;11.97;7.28;;;;;;;22.71;70.93;99193.86;1808679;78;21040;-80
2022/06/02 07:57:07;;;;;;;13.70;7.80;;;;;;;22.84;70.83;99188.03;1806678;79;20992;-79
2022/06/02 07:59:49;;;;;;;18.07;7.20;;;;;;;22.90;70.13;99189.38;1813157;78;21539;-78
2022/06/02 08:02:49;;;;;;;23.10;7.70;;;;;;;22.98;70.08;99183.02;1811374;79;21052;-80
2022/06/02 08:05:36;;;;;;;13.43;6.42;;;;;;;23.09;69.98;99195.48;1810390;79;20996;-79
2022/06/02 08:08:17;;;;;;;13.60;6.60;;;;;;;23.22;69.11;99198.91;1819915;78;21059;-80
2022/06/02 08:11:24;;;;;;;12.33;7.05;;;;;;;23.36;69.13;99194.38;1809663;78;20992;-78
2022/06/02 08:14:11;;;;;;;15.98;6.90;;;;;;;23.49;68.18;99200.89;1805680;78;20992;-80
2022/06/02 08:17:08;;;;;;;12.25;7.10;;;;;;;23.57;68.47;99191.37;1813818;78;20964;-80
2022/06/02 08:19:51;;;;;;;17.12;9.65;;;;;;;23.66;68.53;99189.83;1813313;78;21000;-80
2022/06/02 08:22:24;;;;;;;12.95;6.17;;;;;;;23.80;68.32;99181.66;1809027;78;21590;-80
2022/06/02 08:25:14;;;;;;;15.17;6.33;;;;;;;23.90;67.80;99183.11;1813234;78;21464;-80
2022/06/02 08:27:46;;;;;;;13.32;5.87;;;;;;;23.99;67.46;99186.83;1810943;79;21028;-80
2022/06/02 08:30:23;;;;;;;10.63;5.53;;;;;;;24.13;67.12;99180.42;1819907;78;21063;-80
2022/06/02 08:33:11;;;;;;;11.40;5.67;;;;;;;24.26;67.26;99174.98;1799592;79;21107;-82
2022/06/02 08:36:01;;;;;;;11.95;4.83;;;;;;;24.44;65.89;99181.45;1814611;78;21052;-80
2022/06/02 08:38:46;;;;;;;11.48;5.70;;;;;;;24.41;65.38;99179.91;1810148;78;21095;-80
2022/06/02 08:41:54;;;;;;;11.80;5.60;;;;;;;24.52;64.85;99180.88;1799330;78;21012;-79
2022/06/02 08:44:52;;;;;;;9.65;5.33;;;;;;;24.53;64.09;99175.44;1795429;78;21484;-79
2022/06/02 08:47:50;;;;;;;12.63;6.35;;;;;;;24.59;64.75;99180.70;1815847;78;21528;-80
2022/06/02 08:50:51;;;;;;;14.13;7.55;;;;;;;24.74;64.08;99185.27;1820901;79;21008;-79
2022/06/02 08:53:55;;;;;;;12.10;7.42;;;;;;;24.88;63.63;99182.30;1803823;79;21056;-79
2022/06/02 08:57:05;;;;;;;18.42;7.45;;;;;;;24.92;63.74;99177.08;1789180;79;21012;-79
2022/06/02 09:00:00;;;;;;;13.50;7.80;;;;;;;24.95;63.72;99173.34;1792529;78;21058;-79
2022/06/02 09:03:05;;;;;;;13.22;7.25;;;;;;;25.05;62.80;99175.59;1761400;77;21048;-79
2022/06/02 09:06:09;;;;;;;13.58;7.47;;;;;;;25.15;63.04;99176.99;1802181;78;21000;-80
2022/06/02 09:08:44;;;;;;;12.58;6.70;;;;;;;25.07;62.60;99170.98;1804643;78;22122;-80
2022/06/02 09:11:53;;;;;;;12.75;7.05;;;;;;;25.17;62.85;99172.38;1815364;79;21056;-79
2022/06/02 09:15:07;;;;;;;12.88;7.42;;;;;;;25.27;63.25;99171.98;1796787;79;21060;-79
2022/06/02 09:18:12;;;;;;;14.80;7.67;;;;;;;25.45;62.91;99165.58;1795262;77;21017;-80
2022/06/02 09:21:23;;;;;;;13.13;7.15;;;;;;;25.62;62.71;99167.27;1810785;77;21059;-80
2022/06/02 09:24:01;;;;;;;13.90;6.40;;;;;;;25.70;61.62;99168.77;1814049;77;21543;-79
2022/06/02 09:26:53;;;;;;;13.60;7.17;;;;;;;25.78;62.19;99160.49;1803265;79;21031;-80
2022/06/02 09:29:50;;;;;;;;;;;;;;;25.93;61.80;99162.31;1804572;78;21000;-79
2022/06/02 09:32:44;;;;;;;10.18;5.95;;;;;;;25.97;61.14;99153.08;1812210;78;20480;-80
2022/06/02 09:35:22;;;;;;;10.95;6.35;;;;;;;26.06;61.36;99158.56;1838662;77;21022;-80
2022/06/02 09:38:27;;;;;;;14.95;6.45;;;;;;;26.24;60.34;99146.76;1778148;78;21091;-79
2022/06/02 09:41:20;;;;;;;12.80;6.37;;;;;;;26.35;60.17;99148.81;1769982;80;21014;-80
2022/06/02 09:44:01;;;;;;;12.33;5.75;;;;;;;26.51;59.91;99152.77;1806763;77;21111;-80
2022/06/02 09:47:18;;;;;;;10.10;5.53;;;;;;;26.68;59.38;99160.59;1803983;79;21492;-79
2022/06/02 09:50:17;;;;;;;11.78;5.42;;;;;;;26.74;56.69;99163.56;1801915;78;20996;-80
2022/06/02 09:53:18;;;;;;;10.75;5.03;;;;;;;26.89;56.57;99167.12;1783101;78;21055;-79
2022/06/02 09:56:25;;;;;;;8.20;5.35;;;;;;;26.95;54.53;99163.89;1796478;78;21073;-80
2022/06/02 09:59:12;;;;;;;15.50;6.55;;;;;;;26.94;54.90;99160.89;1813076;77;22016;-80
2022/06/02 10:02:07;;;;;;;15.15;5.10;;;;;;;27.01;55.96;99159.82;1797435;79;21028;-81
2022/06/02 10:04:57;;;;;;;8.60;4.37;;;;;;;27.17;52.82;99162.74;1804265;78;20976;-79
2022/06/02 10:07:47;;;;;;;12.07;5.22;;;;;;;27.38;50.14;99159.94;1783565;79;21016;-80
2022/06/02 10:10:39;;;;;;;11.03;5.37;;;;;;;27.33;51.61;99152.84;1777892;80;21006;-80
2022/06/02 10:13:33;;;;;;;16.75;5.65;;;;;;;27.32;50.72;99155.17;1789232;78;21003;-80
2022/06/02 10:16:28;;;;;;;11.78;5.92;;;;;;;27.42;53.25;99151.15;1765422;81;21068;-80
2022/06/02 10:19:41;;;;;;;13.40;5.55;;;;;;;27.57;52.34;99137.66;1738982;81;21038;-79
2022/06/02 10:22:32;;;;;;;9.58;4.72;;;;;;;27.83;53.21;99139.16;1777319;80;21046;-80
2022/06/02 10:25:19;;;;;;;17.27;4.03;;;;;;;28.15;52.04;99136.56;1800633;79;20983;-81
2022/06/02 10:28:41;;;;;;;6.58;3.08;;;;;;;28.25;50.93;99132.02;1753886;80;21015;-81
2022/06/02 10:31:28;;;;;;;9.45;3.45;;;;;;;28.40;45.08;99138.17;1760842;81;21019;-80
2022/06/02 10:34:15;;;;;;;11.48;3.55;;;;;;;28.52;44.57;99135.14;1753005;80;21010;-80
2022/06/02 10:37:13;;;;;;;7.92;3.20;;;;;;;28.66;45.21;99121.73;1791375;79;21224;-81
2022/06/02 10:40:19;;;;;;;7.90;2.90;;;;;;;28.83;46.99;99109.83;1796526;78;21007;-80
2022/06/02 10:43:23;;;;;;;7.58;2.98;;;;;;;29.10;44.06;99112.37;1782072;78;21007;-79
2022/06/02 10:46:04;;;;;;;7.70;2.83;;;;;;;29.29;43.61;99105.18;1768391;80;20991;-80
2022/06/02 10:49:07;;;;;;;12.45;3.30;;;;;;;29.43;44.40;99101.91;1780176;79;21019;-80
2022/06/02 10:52:13;;;;;;;9.88;3.47;;;;;;;29.49;42.80;99103.11;1793038;80;21015;-80
2022/06/02 10:55:10;;;;;;;14.33;3.60;;;;;;;29.60;42.92;99104.15;1788395;80;21080;-80
2022/06/02 10:58:08;;;;;;;5.70;2.90;;;;;;;29.65;40.31;99097.83;1824685;78;20964;-79
2022/06/02 11:01:30;;;;;;;8.83;2.95;;;;;;;29.71;42.41;99092.33;1830920;78;20960;-80
2022/06/02 11:04:35;;;;;;;11.48;3.08;;;;;;;29.96;39.98;99091.92;1815779;78;21031;-80
2022/06/02 11:07:45;;;;;;;9.58;2.95;;;;;;;29.85;39.08;99084.20;1818926;78;21011;-80
2022/06/02 11:10:41;;;;;;;7.80;2.90;;;;;;;29.76;40.04;99084.66;1815796;78;21015;-79
2022/06/02 11:13:44;;;;;;;10.48;2.80;;;;;;;29.72;38.66;99082.83;1767923;79;21507;-79
2022/06/02 11:16:40;;;;;;;9.60;2.92;;;;;;;29.61;39.37;99083.08;1742927;79;21479;-80
2022/06/02 11:19:59;;;;;;;6.17;2.60;;;;;;;29.61;39.64;99073.70;1713583;80;21019;-80
2022/06/02 11:23:13;;;;;;;11.68;2.83;;;;;;;29.62;39.84;99065.16;1802018;79;21145;-79
2022/06/02 11:26:06;;;;;;;6.25;3.10;;;;;;;29.83;40.62;99060.25;1807869;78;21530;-81
2022/06/02 11:28:55;;;;;;;7.97;2.83;;;;;;;29.99;40.68;99063.98;1809774;78;21035;-80
2022/06/02 11:32:00;;;;;;;9.73;3.25;;;;;;;30.09;40.33;99060.64;1804732;78;21051;-80
2022/06/02 11:34:49;;;;;;;6.22;2.95;;;;;;;30.28;39.69;99060.83;1803850;78;21028;-80
2022/06/02 11:37:47;;;;;;;7.62;2.62;;;;;;;30.56;37.47;99059.20;1822386;78;21083;-80
2022/06/02 11:40:57;;;;;;;6.62;2.60;;;;;;;30.69;38.44;99058.20;1809622;79;20996;-80
2022/06/02 11:43:41;;;;;;;6.67;2.80;;;;;;;30.78;37.46;99056.33;1820654;78;21035;-78
2022/06/02 11:46:47;;;;;;;9.00;3.17;;;;;;;30.69;36.29;99057.69;1788996;78;20943;-80
2022/06/02 11:49:59;;;;;;;6.20;2.90;;;;;;;30.61;37.01;99051.50;1825179;78;21003;-80
2022/06/02 11:53:03;;;;;;;10.82;2.95;;;;;;;30.72;37.94;99061.90;1768144;80;20965;-80
2022/06/02 11:55:42;;;;;;;8.20;2.60;;;;;;;30.77;37.75;99069.44;1766464;79;21001;-80
2022/06/02 11:58:32;;;;;;;9.50;3.30;;;;;;;30.82;36.92;99063.03;1792982;79;20990;-81
2022/06/02 12:01:28;;;;;;;5.03;2.80;;;;;;;30.86;36.62;99060.38;1784409;78;21579;-80
2022/06/02 12:04:15;;;;;;;7.92;3.02;;;;;;;31.03;37.01;99064.72;1800364;79;20999;-80
2022/06/02 12:07:05;;;;;;;6.65;2.80;;;;;;;31.08;35.92;99066.40;1782045;79;21041;-80
2022/06/02 12:09:53;;;;;;;8.68;2.42;;;;;;;30.94;36.09;99061.73;1802008;79;20982;-80
2022/06/02 12:12:45;;;;;;;5.75;2.80;;;;;;;31.18;35.58;99057.30;1787338;79;21017;-80
2022/06/02 12:16:05;;;;;;;12.73;2.70;;;;;;;31.39;36.42;99045.48;1776017;79;21537;-79
2022/06/02 12:19:09;;;;;;;9.00;3.05;;;;;;;31.89;35.68;99046.98;1800239;79;21085;-79
2022/06/02 12:21:59;;;;;;;6.47;2.77;;;;;;;32.57;35.83;99040.50;1794499;79;21010;-79
2022/06/02 12:25:00;;;;;;;8.30;3.17;;;;;;;33.26;34.39;99036.78;1806457;79;21013;-80
2022/06/02 12:27:57;;;;;;;5.30;2.30;;;;;;;33.63;34.10;99037.20;1794340;79;21084;-80
2022/06/02 12:30:59;;;;;;;6.67;2.62;;;;;;;34.05;32.20;99033.41;1756523;80;20991;-81
2022/06/02 12:33:57;;;;;;;5.13;2.30;;;;;;;34.84;31.15;99041.44;1721508;82;21023;-81
2022/06/02 12:36:32;;;;;;;6.95;2.20;;;;;;;35.18;30.12;99044.39;1779971;80;21521;-80
2022/06/02 12:39:16;;;;;;;6.72;2.65;;;;;;;35.04;30.21;99041.57;1747957;80;21011;-80
2022/06/02 12:41:51;;;;;;;5.08;2.40;;;;;;;35.12;29.54;99046.48;1769704;80;20983;-81
2022/06/02 12:44:32;;;;;;;6.67;2.72;;;;;;;35.05;28.12;99051.85;1752122;81;21019;-80
2022/06/02 12:47:22;;;;;;;8.63;3.03;;;;;;;34.83;29.10;99050.56;1740604;80;21041;-81
2022/06/02 12:50:12;;;;;;;7.03;2.50;;;;;;;34.92;30.20;99048.56;1780640;80;21534;-80
2022/06/02 12:53:16;;;;;;;5.87;2.45;;;;;;;34.37;29.56;99060.95;1768794;80;21034;-80
2022/06/02 12:56:17;;;;;;;6.03;2.37;;;;;;;34.20;30.56;99065.75;1770534;78;21047;-80
2022/06/02 12:59:18;;;;;;;6.75;2.50;;;;;;;33.98;31.00;99071.11;1786524;80;21011;-81
2022/06/02 13:02:02;;;;;;;8.95;2.70;;;;;;;33.94;30.09;99064.92;1767230;81;21042;-80
2022/06/02 13:05:00;;;;;;;9.93;2.98;;;;;;;34.03;30.49;99065.97;1781558;78;21026;-81
2022/06/02 13:08:15;;;;;;;5.72;2.50;;;;;;;33.98;30.86;99070.25;1791759;78;20991;-81
2022/06/02 13:11:16;;;;;;;4.17;2.10;;;;;;;33.76;31.48;99060.77;1786643;80;21042;-80
2022/06/02 13:14:20;;;;;;;5.97;2.30;;;;;;;34.22;30.48;99068.59;1768468;78;21045;-80
2022/06/02 13:17:32;;;;;;;6.28;2.20;;;;;;;34.80;28.79;99060.94;1780544;78;21615;-80
2022/06/02 13:20:24;;;;;;;9.10;2.40;;;;;;;35.36;28.52;99056.03;1781541;79;21538;-80
2022/06/02 13:23:20;;;;;;;4.50;2.40;;;;;;;35.96;27.95;99063.06;1781583;79;21576;-80
2022/06/02 13:26:12;;;;;;;7.42;2.27;;;;;;;35.75;27.63;99062.14;1810105;78;21047;-81
2022/06/02 13:28:58;;;;;;;6.97;2.50;;;;;;;36.10;26.93;99057.16;1828379;78;21014;-81
2022/06/02 13:31:53;;;;;;;5.80;2.42;;;;;;;36.62;25.76;99053.69;1813551;78;21031;-82
2022/06/02 13:34:54;;;;;;;5.15;1.95;;;;;;;36.62;25.76;99053.69;1812860;78;20991;-83
2022/06/02 13:37:42;;;;;;;4.25;2.05;;;;;;;37.24;26.73;99052.11;1818001;78;21062;-83